sensor_id;sensor_type;location;lat;lon;timestamp;P1;durP1;ratioP1;P2;durP2;ratioP2
59388;SDS011;51830;45.202;19.720;2023-05-14T00:01:50;13.05;;;3.28;;
59388;SDS011;51830;45.202;19.720;2023-05-14T00:04:16;11.10;;;3.30;;
59388;SDS011;51830;45.202;19.720;2023-05-14T00:06:44;12.93;;;3.75;;
59388;SDS011;51830;45.202;19.720;2023-05-14T00:09:10;13.40;;;3.60;;
59388;SDS011;51830;45.202;19.720;2023-05-14T00:11:37;11.18;;;3.10;;
59388;SDS011;51830;45.202;19.720;2023-05-14T00:14:03;12.82;;;3.20;;
59388;SDS011;51830;45.202;19.720;2023-05-14T00:16:29;12.63;;;3.47;;
59388;SDS011;51830;45.202;19.720;2023-05-14T00:18:56;13.45;;;3.42;;
59388;SDS011;51830;45.202;19.720;2023-05-14T00:21:22;15.15;;;3.63;;
59388;SDS011;51830;45.202;19.720;2023-05-14T00:23:48;11.50;;;3.08;;
59388;SDS011;51830;45.202;19.720;2023-05-14T00:26:14;14.25;;;3.58;;
59388;SDS011;51830;45.202;19.720;2023-05-14T00:28:41;12.75;;;3.45;;
59388;SDS011;51830;45.202;19.720;2023-05-14T00:31:07;15.18;;;4.05;;
59388;SDS011;51830;45.202;19.720;2023-05-14T00:33:33;11.43;;;3.50;;
59388;SDS011;51830;45.202;19.720;2023-05-14T00:35:59;10.18;;;2.88;;
59388;SDS011;51830;45.202;19.720;2023-05-14T00:38:26;12.93;;;3.55;;
59388;SDS011;51830;45.202;19.720;2023-05-14T00:40:52;11.75;;;3.17;;
59388;SDS011;51830;45.202;19.720;2023-05-14T00:43:19;13.13;;;3.95;;
59388;SDS011;51830;45.202;19.720;2023-05-14T00:45:49;14.02;;;3.90;;
59388;SDS011;51830;45.202;19.720;2023-05-14T00:48:15;11.40;;;3.47;;
59388;SDS011;51830;45.202;19.720;2023-05-14T00:50:41;13.35;;;3.95;;
59388;SDS011;51830;45.202;19.720;2023-05-14T00:53:08;14.15;;;3.40;;
59388;SDS011;51830;45.202;19.720;2023-05-14T00:55:38;9.23;;;2.88;;
59388;SDS011;51830;45.202;19.720;2023-05-14T00:58:06;15.95;;;3.92;;
59388;SDS011;51830;45.202;19.720;2023-05-14T01:00:32;12.43;;;3.55;;
59388;SDS011;51830;45.202;19.720;2023-05-14T01:02:59;13.13;;;4.03;;
59388;SDS011;51830;45.202;19.720;2023-05-14T01:05:35;13.18;;;3.42;;
59388;SDS011;51830;45.202;19.720;2023-05-14T01:08:15;12.82;;;4.10;;
59388;SDS011;51830;45.202;19.720;2023-05-14T01:10:55;12.35;;;3.55;;
59388;SDS011;51830;45.202;19.720;2023-05-14T01:13:26;11.75;;;3.42;;
59388;SDS011;51830;45.202;19.720;2023-05-14T01:15:55;13.50;;;3.88;;
59388;SDS011;51830;45.202;19.720;2023-05-14T01:18:23;11.05;;;3.22;;
59388;SDS011;51830;45.202;19.720;2023-05-14T01:20:50;14.00;;;4.03;;
59388;SDS011;51830;45.202;19.720;2023-05-14T01:23:16;14.73;;;4.10;;
59388;SDS011;51830;45.202;19.720;2023-05-14T01:25:43;13.38;;;4.00;;
59388;SDS011;51830;45.202;19.720;2023-05-14T01:28:19;14.52;;;4.57;;
59388;SDS011;51830;45.202;19.720;2023-05-14T01:30:52;13.45;;;3.83;;
59388;SDS011;51830;45.202;19.720;2023-05-14T01:33:20;14.77;;;4.22;;
59388;SDS011;51830;45.202;19.720;2023-05-14T01:35:47;13.15;;;3.75;;
59388;SDS011;51830;45.202;19.720;2023-05-14T01:38:14;13.43;;;3.75;;
59388;SDS011;51830;45.202;19.720;2023-05-14T01:40:42;11.98;;;3.70;;
59388;SDS011;51830;45.202;19.720;2023-05-14T01:43:10;13.63;;;3.75;;
59388;SDS011;51830;45.202;19.720;2023-05-14T01:45:36;10.95;;;3.63;;
59388;SDS011;51830;45.202;19.720;2023-05-14T01:48:03;14.55;;;3.88;;
59388;SDS011;51830;45.202;19.720;2023-05-14T01:50:29;15.50;;;4.53;;
59388;SDS011;51830;45.202;19.720;2023-05-14T01:52:56;13.60;;;4.50;;
59388;SDS011;51830;45.202;19.720;2023-05-14T01:55:22;12.32;;;4.18;;
59388;SDS011;51830;45.202;19.720;2023-05-14T01:57:49;13.40;;;4.22;;
59388;SDS011;51830;45.202;19.720;2023-05-14T02:00:15;16.33;;;4.70;;
59388;SDS011;51830;45.202;19.720;2023-05-14T02:02:42;16.30;;;4.47;;
59388;SDS011;51830;45.202;19.720;2023-05-14T02:05:09;14.55;;;5.30;;
59388;SDS011;51830;45.202;19.720;2023-05-14T02:07:35;15.90;;;5.07;;
59388;SDS011;51830;45.202;19.720;2023-05-14T02:10:02;17.35;;;5.57;;
59388;SDS011;51830;45.202;19.720;2023-05-14T02:12:28;14.07;;;4.50;;
59388;SDS011;51830;45.202;19.720;2023-05-14T02:14:54;14.35;;;4.30;;
59388;SDS011;51830;45.202;19.720;2023-05-14T02:17:21;14.98;;;5.15;;
59388;SDS011;51830;45.202;19.720;2023-05-14T02:19:47;15.35;;;4.78;;
59388;SDS011;51830;45.202;19.720;2023-05-14T02:22:13;15.23;;;4.63;;
59388;SDS011;51830;45.202;19.720;2023-05-14T02:24:39;14.23;;;4.10;;
59388;SDS011;51830;45.202;19.720;2023-05-14T02:27:05;15.63;;;4.40;;
59388;SDS011;51830;45.202;19.720;2023-05-14T02:29:32;14.73;;;4.10;;
59388;SDS011;51830;45.202;19.720;2023-05-14T02:31:58;12.73;;;3.65;;
59388;SDS011;51830;45.202;19.720;2023-05-14T02:34:24;14.18;;;4.28;;
59388;SDS011;51830;45.202;19.720;2023-05-14T02:36:51;11.63;;;3.92;;
59388;SDS011;51830;45.202;19.720;2023-05-14T02:39:17;12.20;;;3.58;;
59388;SDS011;51830;45.202;19.720;2023-05-14T02:41:43;12.70;;;3.60;;
59388;SDS011;51830;45.202;19.720;2023-05-14T02:44:09;14.98;;;4.43;;
59388;SDS011;51830;45.202;19.720;2023-05-14T02:46:35;12.88;;;3.47;;
59388;SDS011;51830;45.202;19.720;2023-05-14T02:49:02;13.77;;;4.15;;
59388;SDS011;51830;45.202;19.720;2023-05-14T02:51:28;13.68;;;3.65;;
59388;SDS011;51830;45.202;19.720;2023-05-14T02:53:54;12.25;;;3.72;;
59388;SDS011;51830;45.202;19.720;2023-05-14T02:56:20;14.38;;;3.58;;
59388;SDS011;51830;45.202;19.720;2023-05-14T02:58:47;13.27;;;3.53;;
59388;SDS011;51830;45.202;19.720;2023-05-14T03:01:13;12.00;;;3.75;;
59388;SDS011;51830;45.202;19.720;2023-05-14T03:03:39;13.73;;;3.60;;
59388;SDS011;51830;45.202;19.720;2023-05-14T03:06:06;12.93;;;3.40;;
59388;SDS011;51830;45.202;19.720;2023-05-14T03:08:32;10.45;;;3.20;;
59388;SDS011;51830;45.202;19.720;2023-05-14T03:10:58;10.90;;;2.88;;
59388;SDS011;51830;45.202;19.720;2023-05-14T03:13:24;9.65;;;3.03;;
59388;SDS011;51830;45.202;19.720;2023-05-14T03:15:51;12.52;;;3.50;;
59388;SDS011;51830;45.202;19.720;2023-05-14T03:18:21;11.02;;;2.80;;
59388;SDS011;51830;45.202;19.720;2023-05-14T03:20:47;10.30;;;2.95;;
59388;SDS011;51830;45.202;19.720;2023-05-14T03:23:13;12.07;;;3.05;;
59388;SDS011;51830;45.202;19.720;2023-05-14T03:25:39;13.82;;;3.58;;
59388;SDS011;51830;45.202;19.720;2023-05-14T03:28:06;11.50;;;2.90;;
59388;SDS011;51830;45.202;19.720;2023-05-14T03:30:33;9.52;;;2.35;;
59388;SDS011;51830;45.202;19.720;2023-05-14T03:32:59;9.98;;;2.70;;
59388;SDS011;51830;45.202;19.720;2023-05-14T03:35:25;9.35;;;2.60;;
59388;SDS011;51830;45.202;19.720;2023-05-14T03:37:52;10.35;;;3.20;;
59388;SDS011;51830;45.202;19.720;2023-05-14T03:40:19;14.13;;;3.28;;
59388;SDS011;51830;45.202;19.720;2023-05-14T03:42:45;10.52;;;3.15;;
59388;SDS011;51830;45.202;19.720;2023-05-14T03:45:11;9.80;;;2.92;;
59388;SDS011;51830;45.202;19.720;2023-05-14T03:47:38;10.77;;;2.85;;
59388;SDS011;51830;45.202;19.720;2023-05-14T03:50:04;11.93;;;3.00;;
59388;SDS011;51830;45.202;19.720;2023-05-14T03:52:30;10.70;;;2.88;;
59388;SDS011;51830;45.202;19.720;2023-05-14T03:54:57;12.10;;;2.97;;
59388;SDS011;51830;45.202;19.720;2023-05-14T03:57:23;9.73;;;2.75;;
59388;SDS011;51830;45.202;19.720;2023-05-14T03:59:49;12.43;;;3.53;;
59388;SDS011;51830;45.202;19.720;2023-05-14T04:02:16;10.15;;;2.75;;
59388;SDS011;51830;45.202;19.720;2023-05-14T04:04:42;12.43;;;3.28;;
59388;SDS011;51830;45.202;19.720;2023-05-14T04:07:08;10.65;;;3.00;;
59388;SDS011;51830;45.202;19.720;2023-05-14T04:09:34;10.68;;;2.95;;
59388;SDS011;51830;45.202;19.720;2023-05-14T04:12:01;12.85;;;3.22;;
59388;SDS011;51830;45.202;19.720;2023-05-14T04:14:27;9.23;;;2.63;;
59388;SDS011;51830;45.202;19.720;2023-05-14T04:16:53;11.45;;;3.33;;
59388;SDS011;51830;45.202;19.720;2023-05-14T04:19:20;14.30;;;3.13;;
59388;SDS011;51830;45.202;19.720;2023-05-14T04:21:46;13.52;;;3.05;;
59388;SDS011;51830;45.202;19.720;2023-05-14T04:24:12;9.45;;;2.63;;
59388;SDS011;51830;45.202;19.720;2023-05-14T04:26:38;10.88;;;2.85;;
59388;SDS011;51830;45.202;19.720;2023-05-14T04:29:04;8.75;;;2.90;;
59388;SDS011;51830;45.202;19.720;2023-05-14T04:31:31;11.95;;;3.15;;
59388;SDS011;51830;45.202;19.720;2023-05-14T04:33:57;10.50;;;3.00;;
59388;SDS011;51830;45.202;19.720;2023-05-14T04:36:24;10.40;;;2.88;;
59388;SDS011;51830;45.202;19.720;2023-05-14T04:38:50;10.98;;;2.75;;
59388;SDS011;51830;45.202;19.720;2023-05-14T04:41:16;10.30;;;2.92;;
59388;SDS011;51830;45.202;19.720;2023-05-14T04:43:43;11.10;;;3.00;;
59388;SDS011;51830;45.202;19.720;2023-05-14T04:46:10;10.25;;;2.80;;
59388;SDS011;51830;45.202;19.720;2023-05-14T04:48:36;10.02;;;3.03;;
59388;SDS011;51830;45.202;19.720;2023-05-14T04:51:02;13.05;;;3.47;;
59388;SDS011;51830;45.202;19.720;2023-05-14T04:53:29;11.32;;;3.55;;
59388;SDS011;51830;45.202;19.720;2023-05-14T04:55:55;11.15;;;3.00;;
59388;SDS011;51830;45.202;19.720;2023-05-14T04:58:21;11.75;;;3.65;;
59388;SDS011;51830;45.202;19.720;2023-05-14T05:00:48;11.05;;;3.15;;
59388;SDS011;51830;45.202;19.720;2023-05-14T05:03:15;10.35;;;3.05;;
59388;SDS011;51830;45.202;19.720;2023-05-14T05:05:41;10.85;;;2.63;;
59388;SDS011;51830;45.202;19.720;2023-05-14T05:08:07;9.55;;;2.83;;
59388;SDS011;51830;45.202;19.720;2023-05-14T05:10:35;9.65;;;2.97;;
59388;SDS011;51830;45.202;19.720;2023-05-14T05:13:01;9.05;;;2.55;;
59388;SDS011;51830;45.202;19.720;2023-05-14T05:15:27;12.45;;;2.95;;
59388;SDS011;51830;45.202;19.720;2023-05-14T05:17:54;10.75;;;3.13;;
59388;SDS011;51830;45.202;19.720;2023-05-14T05:20:20;13.90;;;2.97;;
59388;SDS011;51830;45.202;19.720;2023-05-14T05:22:47;11.52;;;2.97;;
59388;SDS011;51830;45.202;19.720;2023-05-14T05:25:13;12.77;;;3.40;;
59388;SDS011;51830;45.202;19.720;2023-05-14T05:27:39;9.88;;;2.90;;
59388;SDS011;51830;45.202;19.720;2023-05-14T05:30:06;9.82;;;2.83;;
59388;SDS011;51830;45.202;19.720;2023-05-14T05:32:32;10.77;;;3.03;;
59388;SDS011;51830;45.202;19.720;2023-05-14T05:34:59;11.45;;;2.83;;
59388;SDS011;51830;45.202;19.720;2023-05-14T05:37:25;11.98;;;3.20;;
59388;SDS011;51830;45.202;19.720;2023-05-14T05:39:51;11.88;;;3.03;;
59388;SDS011;51830;45.202;19.720;2023-05-14T05:42:18;13.57;;;3.80;;
59388;SDS011;51830;45.202;19.720;2023-05-14T05:44:44;10.20;;;2.80;;
59388;SDS011;51830;45.202;19.720;2023-05-14T05:47:11;13.32;;;3.03;;
59388;SDS011;51830;45.202;19.720;2023-05-14T05:49:37;11.50;;;2.90;;
59388;SDS011;51830;45.202;19.720;2023-05-14T05:52:03;15.10;;;4.10;;
59388;SDS011;51830;45.202;19.720;2023-05-14T05:54:30;11.55;;;3.20;;
59388;SDS011;51830;45.202;19.720;2023-05-14T05:56:59;11.88;;;3.13;;
59388;SDS011;51830;45.202;19.720;2023-05-14T05:59:25;13.30;;;3.25;;
59388;SDS011;51830;45.202;19.720;2023-05-14T06:01:51;11.70;;;3.30;;
59388;SDS011;51830;45.202;19.720;2023-05-14T06:04:18;7.22;;;2.45;;
59388;SDS011;51830;45.202;19.720;2023-05-14T06:06:44;11.23;;;3.28;;
59388;SDS011;51830;45.202;19.720;2023-05-14T06:09:10;12.43;;;3.42;;
59388;SDS011;51830;45.202;19.720;2023-05-14T06:11:37;9.57;;;3.05;;
59388;SDS011;51830;45.202;19.720;2023-05-14T06:14:03;12.10;;;3.25;;
59388;SDS011;51830;45.202;19.720;2023-05-14T06:16:30;12.98;;;3.53;;
59388;SDS011;51830;45.202;19.720;2023-05-14T06:18:56;13.95;;;3.08;;
59388;SDS011;51830;45.202;19.720;2023-05-14T06:21:23;13.27;;;3.55;;
59388;SDS011;51830;45.202;19.720;2023-05-14T06:23:49;12.32;;;3.65;;
59388;SDS011;51830;45.202;19.720;2023-05-14T06:26:16;12.38;;;3.40;;
59388;SDS011;51830;45.202;19.720;2023-05-14T06:28:43;13.55;;;3.72;;
59388;SDS011;51830;45.202;19.720;2023-05-14T06:31:09;11.45;;;3.13;;
59388;SDS011;51830;45.202;19.720;2023-05-14T06:33:35;11.82;;;3.30;;
59388;SDS011;51830;45.202;19.720;2023-05-14T06:36:03;11.82;;;3.38;;
59388;SDS011;51830;45.202;19.720;2023-05-14T06:38:29;11.60;;;3.15;;
59388;SDS011;51830;45.202;19.720;2023-05-14T06:40:56;6.90;;;2.08;;
59388;SDS011;51830;45.202;19.720;2023-05-14T06:43:22;12.73;;;3.47;;
59388;SDS011;51830;45.202;19.720;2023-05-14T06:45:49;11.48;;;3.33;;
59388;SDS011;51830;45.202;19.720;2023-05-14T06:48:16;6.90;;;2.58;;
59388;SDS011;51830;45.202;19.720;2023-05-14T06:50:45;12.45;;;3.80;;
59388;SDS011;51830;45.202;19.720;2023-05-14T06:53:12;12.35;;;3.65;;
59388;SDS011;51830;45.202;19.720;2023-05-14T06:55:39;14.45;;;4.28;;
59388;SDS011;51830;45.202;19.720;2023-05-14T06:58:05;14.02;;;3.83;;
59388;SDS011;51830;45.202;19.720;2023-05-14T07:00:31;11.90;;;2.95;;
59388;SDS011;51830;45.202;19.720;2023-05-14T07:02:57;13.13;;;3.58;;
59388;SDS011;51830;45.202;19.720;2023-05-14T07:05:24;13.88;;;3.47;;
59388;SDS011;51830;45.202;19.720;2023-05-14T07:07:50;14.85;;;4.13;;
59388;SDS011;51830;45.202;19.720;2023-05-14T07:10:17;9.73;;;3.03;;
59388;SDS011;51830;45.202;19.720;2023-05-14T07:12:43;12.57;;;3.35;;
59388;SDS011;51830;45.202;19.720;2023-05-14T07:15:09;8.70;;;2.58;;
59388;SDS011;51830;45.202;19.720;2023-05-14T07:17:36;11.48;;;3.70;;
59388;SDS011;51830;45.202;19.720;2023-05-14T07:20:02;10.95;;;2.95;;
59388;SDS011;51830;45.202;19.720;2023-05-14T07:22:29;11.50;;;3.60;;
59388;SDS011;51830;45.202;19.720;2023-05-14T07:24:55;15.23;;;4.07;;
59388;SDS011;51830;45.202;19.720;2023-05-14T07:27:21;13.38;;;3.60;;
59388;SDS011;51830;45.202;19.720;2023-05-14T07:29:48;12.10;;;3.47;;
59388;SDS011;51830;45.202;19.720;2023-05-14T07:32:16;15.85;;;4.45;;
59388;SDS011;51830;45.202;19.720;2023-05-14T07:34:42;14.32;;;3.70;;
59388;SDS011;51830;45.202;19.720;2023-05-14T07:37:08;11.95;;;3.30;;
59388;SDS011;51830;45.202;19.720;2023-05-14T07:39:35;11.35;;;3.33;;
59388;SDS011;51830;45.202;19.720;2023-05-14T07:42:01;10.75;;;3.28;;
59388;SDS011;51830;45.202;19.720;2023-05-14T07:44:27;11.23;;;2.90;;
59388;SDS011;51830;45.202;19.720;2023-05-14T07:46:53;10.57;;;3.05;;
59388;SDS011;51830;45.202;19.720;2023-05-14T07:49:20;10.27;;;2.83;;
59388;SDS011;51830;45.202;19.720;2023-05-14T07:51:46;12.35;;;3.33;;
59388;SDS011;51830;45.202;19.720;2023-05-14T07:54:12;9.38;;;3.03;;
59388;SDS011;51830;45.202;19.720;2023-05-14T07:56:38;11.90;;;3.25;;
59388;SDS011;51830;45.202;19.720;2023-05-14T07:59:04;9.45;;;3.03;;
59388;SDS011;51830;45.202;19.720;2023-05-14T08:01:31;9.45;;;2.97;;
59388;SDS011;51830;45.202;19.720;2023-05-14T08:03:57;11.85;;;3.25;;
59388;SDS011;51830;45.202;19.720;2023-05-14T08:06:23;12.77;;;3.33;;
59388;SDS011;51830;45.202;19.720;2023-05-14T08:08:51;10.65;;;3.20;;
59388;SDS011;51830;45.202;19.720;2023-05-14T08:11:17;8.15;;;2.42;;
59388;SDS011;51830;45.202;19.720;2023-05-14T08:13:44;12.68;;;3.55;;
59388;SDS011;51830;45.202;19.720;2023-05-14T08:16:10;12.07;;;3.40;;
59388;SDS011;51830;45.202;19.720;2023-05-14T08:18:36;13.60;;;3.97;;
59388;SDS011;51830;45.202;19.720;2023-05-14T08:21:02;12.07;;;3.50;;
59388;SDS011;51830;45.202;19.720;2023-05-14T08:23:28;14.45;;;3.22;;
59388;SDS011;51830;45.202;19.720;2023-05-14T08:25:55;12.00;;;3.70;;
59388;SDS011;51830;45.202;19.720;2023-05-14T08:28:21;13.20;;;3.78;;
59388;SDS011;51830;45.202;19.720;2023-05-14T08:30:47;11.50;;;3.83;;
59388;SDS011;51830;45.202;19.720;2023-05-14T08:33:13;12.07;;;3.53;;
59388;SDS011;51830;45.202;19.720;2023-05-14T08:35:40;14.80;;;3.90;;
59388;SDS011;51830;45.202;19.720;2023-05-14T08:38:06;12.82;;;3.58;;
59388;SDS011;51830;45.202;19.720;2023-05-14T08:40:32;13.25;;;3.80;;
59388;SDS011;51830;45.202;19.720;2023-05-14T08:42:58;13.80;;;3.33;;
59388;SDS011;51830;45.202;19.720;2023-05-14T08:45:29;13.88;;;4.32;;
59388;SDS011;51830;45.202;19.720;2023-05-14T08:47:58;13.60;;;4.13;;
59388;SDS011;51830;45.202;19.720;2023-05-14T08:50:26;13.30;;;3.80;;
59388;SDS011;51830;45.202;19.720;2023-05-14T08:52:54;13.23;;;3.78;;
59388;SDS011;51830;45.202;19.720;2023-05-14T08:55:20;15.95;;;3.60;;
59388;SDS011;51830;45.202;19.720;2023-05-14T08:57:47;15.32;;;3.78;;
59388;SDS011;51830;45.202;19.720;2023-05-14T09:00:13;16.08;;;4.60;;
59388;SDS011;51830;45.202;19.720;2023-05-14T09:02:40;11.88;;;3.30;;
59388;SDS011;51830;45.202;19.720;2023-05-14T09:05:07;12.98;;;3.70;;
59388;SDS011;51830;45.202;19.720;2023-05-14T09:07:33;12.40;;;3.45;;
59388;SDS011;51830;45.202;19.720;2023-05-14T09:10:00;13.68;;;3.90;;
59388;SDS011;51830;45.202;19.720;2023-05-14T09:12:26;11.60;;;3.33;;
59388;SDS011;51830;45.202;19.720;2023-05-14T09:14:53;14.40;;;3.85;;
59388;SDS011;51830;45.202;19.720;2023-05-14T09:17:19;15.13;;;4.53;;
59388;SDS011;51830;45.202;19.720;2023-05-14T09:19:45;11.13;;;3.45;;
59388;SDS011;51830;45.202;19.720;2023-05-14T09:22:17;14.20;;;4.00;;
59388;SDS011;51830;45.202;19.720;2023-05-14T09:24:43;12.15;;;3.33;;
59388;SDS011;51830;45.202;19.720;2023-05-14T09:27:14;13.13;;;3.65;;
59388;SDS011;51830;45.202;19.720;2023-05-14T09:29:44;13.77;;;4.18;;
59388;SDS011;51830;45.202;19.720;2023-05-14T09:32:10;11.95;;;3.60;;
59388;SDS011;51830;45.202;19.720;2023-05-14T09:34:36;12.00;;;3.40;;
59388;SDS011;51830;45.202;19.720;2023-05-14T09:37:03;12.73;;;3.33;;
59388;SDS011;51830;45.202;19.720;2023-05-14T09:39:30;16.42;;;5.30;;
59388;SDS011;51830;45.202;19.720;2023-05-14T09:41:56;14.38;;;4.15;;
59388;SDS011;51830;45.202;19.720;2023-05-14T09:44:23;14.73;;;4.18;;
59388;SDS011;51830;45.202;19.720;2023-05-14T09:46:50;13.15;;;4.03;;
59388;SDS011;51830;45.202;19.720;2023-05-14T09:49:17;11.80;;;3.65;;
59388;SDS011;51830;45.202;19.720;2023-05-14T09:51:43;12.93;;;3.95;;
59388;SDS011;51830;45.202;19.720;2023-05-14T09:54:09;13.75;;;4.53;;
59388;SDS011;51830;45.202;19.720;2023-05-14T09:56:36;19.20;;;3.67;;
59388;SDS011;51830;45.202;19.720;2023-05-14T09:59:03;12.23;;;3.15;;
59388;SDS011;51830;45.202;19.720;2023-05-14T10:01:30;13.18;;;3.72;;
59388;SDS011;51830;45.202;19.720;2023-05-14T10:03:57;13.07;;;3.63;;
59388;SDS011;51830;45.202;19.720;2023-05-14T10:06:32;13.75;;;3.83;;
59388;SDS011;51830;45.202;19.720;2023-05-14T10:09:02;11.20;;;3.50;;
59388;SDS011;51830;45.202;19.720;2023-05-14T10:11:32;14.93;;;4.03;;
59388;SDS011;51830;45.202;19.720;2023-05-14T10:14:17;13.85;;;3.90;;
59388;SDS011;51830;45.202;19.720;2023-05-14T10:16:46;14.05;;;4.13;;
59388;SDS011;51830;45.202;19.720;2023-05-14T10:19:16;15.95;;;4.43;;
59388;SDS011;51830;45.202;19.720;2023-05-14T10:22:04;11.63;;;3.35;;
59388;SDS011;51830;45.202;19.720;2023-05-14T10:24:29;13.82;;;4.20;;
59388;SDS011;51830;45.202;19.720;2023-05-14T10:26:55;14.13;;;4.13;;
59388;SDS011;51830;45.202;19.720;2023-05-14T10:29:35;12.65;;;3.58;;
59388;SDS011;51830;45.202;19.720;2023-05-14T10:32:05;14.30;;;3.88;;
59388;SDS011;51830;45.202;19.720;2023-05-14T10:34:41;12.07;;;3.65;;
59388;SDS011;51830;45.202;19.720;2023-05-14T10:37:13;13.57;;;3.70;;
59388;SDS011;51830;45.202;19.720;2023-05-14T10:39:40;13.13;;;3.67;;
59388;SDS011;51830;45.202;19.720;2023-05-14T10:42:07;17.48;;;5.00;;
59388;SDS011;51830;45.202;19.720;2023-05-14T10:44:35;13.30;;;4.00;;
59388;SDS011;51830;45.202;19.720;2023-05-14T10:47:05;13.25;;;3.85;;
59388;SDS011;51830;45.202;19.720;2023-05-14T10:49:32;14.40;;;4.20;;
59388;SDS011;51830;45.202;19.720;2023-05-14T10:51:58;16.55;;;4.97;;
59388;SDS011;51830;45.202;19.720;2023-05-14T10:54:26;13.50;;;3.60;;
59388;SDS011;51830;45.202;19.720;2023-05-14T10:56:53;14.25;;;4.20;;
59388;SDS011;51830;45.202;19.720;2023-05-14T10:59:19;14.25;;;4.22;;
59388;SDS011;51830;45.202;19.720;2023-05-14T11:01:45;13.52;;;4.00;;
59388;SDS011;51830;45.202;19.720;2023-05-14T11:04:18;13.50;;;3.47;;
59388;SDS011;51830;45.202;19.720;2023-05-14T11:06:45;13.90;;;4.10;;
59388;SDS011;51830;45.202;19.720;2023-05-14T11:09:12;12.48;;;3.25;;
59388;SDS011;51830;45.202;19.720;2023-05-14T11:11:38;12.70;;;3.50;;
59388;SDS011;51830;45.202;19.720;2023-05-14T11:14:04;10.38;;;2.95;;
59388;SDS011;51830;45.202;19.720;2023-05-14T11:16:30;12.55;;;3.80;;
59388;SDS011;51830;45.202;19.720;2023-05-14T11:19:00;11.15;;;3.17;;
59388;SDS011;51830;45.202;19.720;2023-05-14T11:21:29;11.55;;;3.20;;
59388;SDS011;51830;45.202;19.720;2023-05-14T11:23:58;12.57;;;3.28;;
59388;SDS011;51830;45.202;19.720;2023-05-14T11:26:24;13.50;;;3.85;;
59388;SDS011;51830;45.202;19.720;2023-05-14T11:28:50;15.63;;;3.75;;
59388;SDS011;51830;45.202;19.720;2023-05-14T11:31:16;18.08;;;3.75;;
59388;SDS011;51830;45.202;19.720;2023-05-14T11:33:43;13.00;;;3.90;;
59388;SDS011;51830;45.202;19.720;2023-05-14T11:36:09;14.90;;;4.05;;
59388;SDS011;51830;45.202;19.720;2023-05-14T11:38:44;13.52;;;3.72;;
59388;SDS011;51830;45.202;19.720;2023-05-14T11:41:15;12.93;;;3.50;;
59388;SDS011;51830;45.202;19.720;2023-05-14T11:43:41;12.10;;;3.65;;
59388;SDS011;51830;45.202;19.720;2023-05-14T11:46:08;12.32;;;3.40;;
59388;SDS011;51830;45.202;19.720;2023-05-14T11:48:41;18.13;;;3.60;;
59388;SDS011;51830;45.202;19.720;2023-05-14T11:51:08;11.00;;;3.10;;
59388;SDS011;51830;45.202;19.720;2023-05-14T11:53:34;10.98;;;3.20;;
59388;SDS011;51830;45.202;19.720;2023-05-14T11:56:00;13.20;;;3.55;;
59388;SDS011;51830;45.202;19.720;2023-05-14T11:58:27;11.23;;;3.20;;
59388;SDS011;51830;45.202;19.720;2023-05-14T12:00:57;12.80;;;3.55;;
59388;SDS011;51830;45.202;19.720;2023-05-14T12:03:23;10.95;;;2.83;;
59388;SDS011;51830;45.202;19.720;2023-05-14T12:06:00;11.55;;;3.03;;
59388;SDS011;51830;45.202;19.720;2023-05-14T12:08:27;12.02;;;3.08;;
59388;SDS011;51830;45.202;19.720;2023-05-14T12:10:54;14.60;;;4.30;;
59388;SDS011;51830;45.202;19.720;2023-05-14T12:13:20;13.68;;;3.35;;
59388;SDS011;51830;45.202;19.720;2023-05-14T12:15:53;12.35;;;3.15;;
59388;SDS011;51830;45.202;19.720;2023-05-14T12:18:20;16.42;;;3.25;;
59388;SDS011;51830;45.202;19.720;2023-05-14T12:20:47;12.05;;;3.00;;
59388;SDS011;51830;45.202;19.720;2023-05-14T12:23:15;11.98;;;2.90;;
59388;SDS011;51830;45.202;19.720;2023-05-14T12:25:48;13.27;;;3.28;;
59388;SDS011;51830;45.202;19.720;2023-05-14T12:28:15;10.30;;;2.63;;
59388;SDS011;51830;45.202;19.720;2023-05-14T12:30:41;12.60;;;2.97;;
59388;SDS011;51830;45.202;19.720;2023-05-14T12:33:08;13.30;;;2.90;;
59388;SDS011;51830;45.202;19.720;2023-05-14T12:35:34;10.07;;;2.90;;
59388;SDS011;51830;45.202;19.720;2023-05-14T12:38:01;8.98;;;2.58;;
59388;SDS011;51830;45.202;19.720;2023-05-14T12:40:27;10.18;;;3.00;;
59388;SDS011;51830;45.202;19.720;2023-05-14T12:42:53;10.30;;;2.83;;
59388;SDS011;51830;45.202;19.720;2023-05-14T12:45:20;9.50;;;2.85;;
59388;SDS011;51830;45.202;19.720;2023-05-14T12:47:46;11.80;;;3.22;;
59388;SDS011;51830;45.202;19.720;2023-05-14T12:50:12;10.80;;;2.83;;
59388;SDS011;51830;45.202;19.720;2023-05-14T12:52:38;12.38;;;3.05;;
59388;SDS011;51830;45.202;19.720;2023-05-14T12:55:08;11.88;;;2.90;;
59388;SDS011;51830;45.202;19.720;2023-05-14T12:57:34;12.07;;;2.70;;
59388;SDS011;51830;45.202;19.720;2023-05-14T13:00:00;10.57;;;2.80;;
59388;SDS011;51830;45.202;19.720;2023-05-14T13:02:30;12.90;;;2.83;;
59388;SDS011;51830;45.202;19.720;2023-05-14T13:04:56;8.85;;;2.75;;
59388;SDS011;51830;45.202;19.720;2023-05-14T13:07:22;9.57;;;2.63;;
59388;SDS011;51830;45.202;19.720;2023-05-14T13:09:48;9.25;;;2.70;;
59388;SDS011;51830;45.202;19.720;2023-05-14T13:12:15;9.32;;;2.42;;
59388;SDS011;51830;45.202;19.720;2023-05-14T13:14:41;12.30;;;2.88;;
59388;SDS011;51830;45.202;19.720;2023-05-14T13:17:07;10.68;;;2.65;;
59388;SDS011;51830;45.202;19.720;2023-05-14T13:19:33;12.77;;;2.80;;
59388;SDS011;51830;45.202;19.720;2023-05-14T13:21:59;10.35;;;2.85;;
59388;SDS011;51830;45.202;19.720;2023-05-14T13:24:26;10.10;;;2.50;;
59388;SDS011;51830;45.202;19.720;2023-05-14T13:26:52;10.18;;;2.67;;
59388;SDS011;51830;45.202;19.720;2023-05-14T13:29:18;8.30;;;2.60;;
59388;SDS011;51830;45.202;19.720;2023-05-14T13:31:44;11.95;;;2.88;;
59388;SDS011;51830;45.202;19.720;2023-05-14T13:34:10;10.20;;;2.80;;
59388;SDS011;51830;45.202;19.720;2023-05-14T13:36:37;9.10;;;2.50;;
59388;SDS011;51830;45.202;19.720;2023-05-14T13:39:06;9.68;;;2.85;;
59388;SDS011;51830;45.202;19.720;2023-05-14T13:41:33;10.50;;;2.78;;
59388;SDS011;51830;45.202;19.720;2023-05-14T13:43:59;11.40;;;2.78;;
59388;SDS011;51830;45.202;19.720;2023-05-14T13:46:26;9.63;;;2.80;;
59388;SDS011;51830;45.202;19.720;2023-05-14T13:48:52;10.82;;;2.97;;
59388;SDS011;51830;45.202;19.720;2023-05-14T13:51:18;11.70;;;2.90;;
59388;SDS011;51830;45.202;19.720;2023-05-14T13:53:44;10.45;;;2.90;;
59388;SDS011;51830;45.202;19.720;2023-05-14T13:56:10;11.95;;;2.88;;
59388;SDS011;51830;45.202;19.720;2023-05-14T13:58:36;14.60;;;3.00;;
59388;SDS011;51830;45.202;19.720;2023-05-14T14:01:03;7.68;;;2.42;;
59388;SDS011;51830;45.202;19.720;2023-05-14T14:03:29;10.57;;;2.67;;
59388;SDS011;51830;45.202;19.720;2023-05-14T14:05:55;13.68;;;2.67;;
59388;SDS011;51830;45.202;19.720;2023-05-14T14:08:21;12.25;;;3.00;;
59388;SDS011;51830;45.202;19.720;2023-05-14T14:10:47;9.98;;;2.75;;
59388;SDS011;51830;45.202;19.720;2023-05-14T14:13:13;10.15;;;2.72;;
59388;SDS011;51830;45.202;19.720;2023-05-14T14:15:40;9.90;;;2.65;;
59388;SDS011;51830;45.202;19.720;2023-05-14T14:18:07;10.48;;;2.53;;
59388;SDS011;51830;45.202;19.720;2023-05-14T14:20:33;9.57;;;2.80;;
59388;SDS011;51830;45.202;19.720;2023-05-14T14:23:00;11.85;;;2.90;;